Time;durP1;ratioP1;P1;durP2;ratioP2;P2;SDS_P1;SDS_P2;PMS_P1;PMS_P2;Temp;Humidity;BMP_temperature;BMP_pressure;BME280_temperature;BME280_humidity;BME280_pressure;Samples;Min_cycle;Max_cycle;Signal;HPM_P1;HPM_P2
2022/08/06 00:01:46;;;;;;;1999.90;999.90;;;17.60;99.90;;;;;;5030775;28;20040;-80
2022/08/06 00:04:12;;;;;;;1999.90;999.90;;;17.60;99.90;;;;;;5032719;28;20115;-79
2022/08/06 00:06:37;;;;;;;1999.90;999.90;;;17.60;99.90;;;;;;5018333;28;20500;-85
2022/08/06 00:09:03;;;;;;;1999.90;999.90;;;17.60;99.90;;;;;;5030469;28;20483;-80
2022/08/06 00:11:28;;;;;;;1999.90;999.90;;;17.60;99.90;;;;;;5035091;28;20555;-81
2022/08/06 00:13:54;;;;;;;1999.90;999.90;;;17.70;99.90;;;;;;5029134;28;20025;-79
2022/08/06 00:16:20;;;;;;;1999.90;999.90;;;17.70;99.90;;;;;;5011741;28;20035;-79
2022/08/06 00:18:46;;;;;;;1999.90;999.90;;;17.60;99.90;;;;;;5052172;28;20061;-83
2022/08/06 00:21:11;;;;;;;1999.90;999.90;;;17.70;99.90;;;;;;5032235;28;20062;-80
2022/08/06 00:23:37;;;;;;;1999.90;999.90;;;17.70;99.90;;;;;;5029922;28;20846;-79
2022/08/06 00:26:02;;;;;;;1999.90;999.90;;;17.50;99.90;;;;;;5035838;28;20103;-79
2022/08/06 00:28:28;;;;;;;1999.90;999.90;;;17.50;99.90;;;;;;5040333;28;20496;-80
2022/08/06 00:30:54;;;;;;;1999.90;999.90;;;17.50;99.90;;;;;;5028858;28;20093;-81
2022/08/06 00:33:19;;;;;;;1999.90;999.90;;;17.50;99.90;;;;;;5031236;28;20116;-80
2022/08/06 00:35:45;;;;;;;1999.90;999.90;;;17.50;99.90;;;;;;5036208;28;20029;-80
2022/08/06 00:38:12;;;;;;;1999.90;999.90;;;17.60;99.90;;;;;;5033479;28;20615;-80
2022/08/06 00:40:38;;;;;;;1999.90;999.90;;;17.40;99.90;;;;;;5037749;28;20689;-81
2022/08/06 00:43:04;;;;;;;1999.90;999.90;;;17.60;99.90;;;;;;5040740;28;20043;-82
2022/08/06 00:45:32;;;;;;;1999.90;999.90;;;17.70;99.90;;;;;;5034357;28;20455;-80
2022/08/06 00:47:58;;;;;;;1999.90;999.90;;;17.60;99.90;;;;;;5036099;28;20108;-80
2022/08/06 00:50:24;;;;;;;1999.90;999.90;;;17.70;99.90;;;;;;5041293;28;20029;-79
2022/08/06 00:52:50;;;;;;;1999.90;999.90;;;17.50;99.90;;;;;;5034708;28;20031;-80
2022/08/06 00:55:16;;;;;;;1999.90;999.90;;;17.60;99.90;;;;;;5053074;28;20060;-81
2022/08/06 00:57:41;;;;;;;1999.90;999.90;;;17.50;99.90;;;;;;5034480;28;20507;-81
2022/08/06 01:00:08;;;;;;;1999.90;999.90;;;17.50;99.90;;;;;;5017155;28;20022;-80
2022/08/06 01:02:34;;;;;;;1999.90;999.90;;;17.50;99.90;;;;;;5038278;28;20116;-79
2022/08/06 01:04:59;;;;;;;1999.90;999.90;;;17.80;99.90;;;;;;5020240;28;20116;-82
2022/08/06 01:07:25;;;;;;;1999.90;999.90;;;17.60;99.90;;;;;;5034751;28;20449;-81
2022/08/06 01:09:51;;;;;;;1999.90;999.90;;;17.50;99.90;;;;;;5035346;28;20033;-81
2022/08/06 01:12:17;;;;;;;1999.90;999.90;;;17.70;99.90;;;;;;5007469;28;20514;-80
2022/08/06 01:14:43;;;;;;;1999.90;999.90;;;17.70;99.90;;;;;;5031736;28;20029;-81
2022/08/06 01:17:36;;;;;;;1999.90;999.90;;;17.60;99.90;;;;;;5034682;28;20108;-83
2022/08/06 01:20:08;;;;;;;1999.90;999.90;;;17.70;99.90;;;;;;5039271;28;20784;-80
2022/08/06 01:22:49;;;;;;;1999.90;999.90;;;17.70;99.90;;;;;;5043933;28;20863;-80
2022/08/06 01:25:53;;;;;;;1999.90;999.90;;;17.80;99.90;;;;;;5036850;28;20072;-81
2022/08/06 01:28:24;;;;;;;1999.90;999.90;;;17.90;99.90;;;;;;5038338;28;20110;-81
2022/08/06 01:31:01;;;;;;;1999.90;999.90;;;17.70;99.90;;;;;;5030344;28;20120;-80
2022/08/06 01:33:33;;;;;;;1999.90;999.90;;;17.70;99.90;;;;;;5050970;28;20030;-80
2022/08/06 01:36:02;;;;;;;1999.90;999.90;;;17.60;99.90;;;;;;5039056;28;20042;-85
2022/08/06 01:38:50;;;;;;;1999.90;999.90;;;17.60;99.90;;;;;;5047171;28;20033;-81
2022/08/06 01:41:38;;;;;;;1999.90;999.90;;;17.60;99.90;;;;;;5036841;28;20484;-81
2022/08/06 01:44:08;;;;;;;1999.90;999.90;;;17.60;99.90;;;;;;5034174;28;20033;-81
2022/08/06 01:46:38;;;;;;;1999.90;999.90;;;17.40;99.90;;;;;;5017263;28;20026;-80
2022/08/06 01:49:06;;;;;;;1999.90;999.90;;;17.30;99.90;;;;;;5036521;28;20029;-81
2022/08/06 01:51:33;;;;;;;1999.90;999.90;;;17.30;99.90;;;;;;5037535;28;20048;-81
2022/08/06 01:54:02;;;;;;;1999.90;999.90;;;17.20;99.90;;;;;;5014652;28;20620;-81
2022/08/06 01:56:33;;;;;;;1999.90;999.90;;;17.20;99.90;;;;;;5041102;28;20040;-80
2022/08/06 01:59:02;;;;;;;1999.90;999.90;;;17.10;99.90;;;;;;5034391;28;20022;-81
2022/08/06 02:01:30;;;;;;;1999.90;999.90;;;16.50;99.90;;;;;;5032609;28;20037;-81
2022/08/06 02:03:58;;;;;;;1999.90;999.90;;;15.90;99.90;;;;;;5022265;28;20167;-81
2022/08/06 02:06:38;;;;;;;1999.90;999.90;;;15.60;99.90;;;;;;5034375;28;20029;-80
2022/08/06 02:09:08;;;;;;;1999.90;999.90;;;15.50;99.90;;;;;;5027076;28;20041;-86
2022/08/06 02:11:36;;;;;;;1999.90;999.90;;;15.50;99.90;;;;;;5037632;28;20579;-81
2022/08/06 02:14:03;;;;;;;1999.90;999.90;;;15.30;99.90;;;;;;5033723;28;20493;-81
2022/08/06 02:16:33;;;;;;;1999.90;999.90;;;15.00;99.90;;;;;;5036022;28;20036;-80
2022/08/06 02:19:01;;;;;;;1999.90;999.90;;;15.00;99.90;;;;;;5037867;28;20029;-86
2022/08/06 02:21:28;;;;;;;1999.90;999.90;;;15.10;99.90;;;;;;5033128;28;20150;-82
2022/08/06 02:23:56;;;;;;;1999.90;999.90;;;14.90;99.90;;;;;;5034820;28;20025;-81
2022/08/06 02:26:24;;;;;;;1999.90;999.90;;;14.80;99.90;;;;;;5035142;28;20022;-80
2022/08/06 02:28:53;;;;;;;1999.90;999.90;;;14.90;99.90;;;;;;5030956;28;20032;-81
2022/08/06 02:31:19;;;;;;;1999.90;999.90;;;14.90;99.90;;;;;;5031044;28;20044;-82
2022/08/06 02:33:44;;;;;;;1999.90;999.90;;;15.00;99.90;;;;;;5031404;28;20037;-81
2022/08/06 02:36:39;;;;;;;1999.90;999.90;;;14.90;99.90;;;;;;5037255;28;20040;-81
2022/08/06 02:39:15;;;;;;;1999.90;999.90;;;14.80;99.90;;;;;;5030401;28;20029;-82
2022/08/06 02:41:49;;;;;;;1999.90;999.90;;;14.90;99.90;;;;;;5069779;28;20039;-81
2022/08/06 02:44:20;;;;;;;1999.90;999.90;;;15.00;99.90;;;;;;5033590;28;20520;-81
2022/08/06 02:46:51;;;;;;;1999.90;999.90;;;15.00;99.90;;;;;;5031662;28;20032;-82
2022/08/06 02:49:21;;;;;;;1999.90;999.90;;;14.90;99.90;;;;;;5037183;28;20029;-82
2022/08/06 02:52:14;;;;;;;1999.90;999.90;;;14.90;99.90;;;;;;5033383;28;20021;-81
2022/08/06 02:54:52;;;;;;;1999.90;999.90;;;15.00;99.90;;;;;;5048069;28;20125;-81
2022/08/06 02:57:31;;;;;;;1999.90;999.90;;;14.70;99.90;;;;;;5032352;28;20141;-81
2022/08/06 03:00:06;;;;;;;1999.90;999.90;;;14.80;99.90;;;;;;5027963;28;20018;-81
2022/08/06 03:02:35;;;;;;;1999.90;999.90;;;14.70;99.90;;;;;;5050462;28;20075;-81
2022/08/06 03:05:05;;;;;;;1999.90;999.90;;;14.80;99.90;;;;;;5021109;28;20033;-81
2022/08/06 03:07:32;;;;;;;1999.90;999.90;;;14.70;99.90;;;;;;5033394;28;20029;-86
2022/08/06 03:10:00;;;;;;;1999.90;999.90;;;14.60;99.90;;;;;;5034266;28;20031;-82
2022/08/06 03:12:27;;;;;;;1999.90;999.90;;;14.60;99.90;;;;;;5037071;28;20049;-82
2022/08/06 03:14:53;;;;;;;1999.90;999.90;;;14.70;99.90;;;;;;5031345;28;20025;-80
2022/08/06 03:17:20;;;;;;;1999.90;999.90;;;14.60;99.90;;;;;;5034469;28;20063;-81
2022/08/06 03:19:48;;;;;;;1999.90;999.90;;;14.50;99.90;;;;;;5031999;28;20119;-82
2022/08/06 03:22:15;;;;;;;1999.90;999.90;;;14.70;99.90;;;;;;5031401;28;20234;-80
2022/08/06 03:24:43;;;;;;;1999.90;999.90;;;14.60;99.90;;;;;;5047931;28;20039;-81
2022/08/06 03:27:10;;;;;;;1999.90;999.90;;;14.60;99.90;;;;;;5032659;28;20030;-81
2022/08/06 03:29:39;;;;;;;1999.90;999.90;;;14.60;99.90;;;;;;5026078;28;20036;-83
2022/08/06 03:32:06;;;;;;;1999.90;999.90;;;14.60;99.90;;;;;;5034374;28;20041;-81
2022/08/06 03:34:33;;;;;;;1999.90;999.90;;;14.70;99.90;;;;;;5037176;28;20101;-81
2022/08/06 03:37:01;;;;;;;1999.90;999.90;;;14.70;99.90;;;;;;5034074;28;20124;-81
2022/08/06 03:39:28;;;;;;;1999.90;999.90;;;14.70;99.90;;;;;;5030873;28;20121;-83
2022/08/06 03:41:55;;;;;;;1999.90;999.90;;;14.70;99.90;;;;;;5036942;28;20056;-81
2022/08/06 03:44:22;;;;;;;1999.90;999.90;;;14.70;99.90;;;;;;5034188;28;20756;-81
2022/08/06 03:47:14;;;;;;;1999.90;999.90;;;14.80;99.90;;;;;;5032304;28;20523;-81
2022/08/06 03:49:55;;;;;;;1999.90;999.90;;;14.80;99.90;;;;;;5033071;28;20462;-81
2022/08/06 03:52:26;;;;;;;1999.90;999.90;;;14.90;99.90;;;;;;5029200;28;20040;-81
2022/08/06 03:54:56;;;;;;;1999.90;999.90;;;14.80;99.90;;;;;;5034526;28;20124;-83
2022/08/06 03:57:25;;;;;;;;;;;14.80;99.90;;;;;;5029421;28;20076;-82
2022/08/06 03:59:58;;;;;;;1999.90;999.90;;;14.70;99.90;;;;;;5034572;28;19919;-82
2022/08/06 04:02:33;;;;;;;1999.90;999.90;;;14.80;99.90;;;;;;5034270;28;20038;-81
2022/08/06 04:05:00;;;;;;;1999.90;999.90;;;14.90;99.90;;;;;;5034580;28;20030;-82
2022/08/06 04:07:28;;;;;;;1999.90;999.90;;;14.80;99.90;;;;;;5035295;28;20116;-81
2022/08/06 04:09:54;;;;;;;1999.90;999.90;;;14.70;99.90;;;;;;5030972;28;20044;-81
2022/08/06 04:12:20;;;;;;;1999.90;999.90;;;14.70;99.90;;;;;;5044991;28;20041;-81
2022/08/06 04:14:47;;;;;;;1999.90;999.90;;;14.70;99.90;;;;;;5031897;28;20044;-83
2022/08/06 04:17:13;;;;;;;1999.90;999.90;;;14.90;99.90;;;;;;5035009;28;20688;-81
2022/08/06 04:19:40;;;;;;;1999.90;999.90;;;14.90;99.90;;;;;;5037577;28;20060;-81
2022/08/06 04:22:06;;;;;;;1999.90;999.90;;;15.00;99.90;;;;;;5015086;28;20040;-81
2022/08/06 04:24:32;;;;;;;1999.90;999.90;;;15.00;99.90;;;;;;5020053;28;20128;-81
2022/08/06 04:27:00;;;;;;;1999.90;999.90;;;15.10;99.90;;;;;;5036078;28;20036;-82
2022/08/06 04:29:26;;;;;;;1999.90;999.90;;;15.00;99.90;;;;;;5038482;28;20324;-82
2022/08/06 04:31:52;;;;;;;1999.90;999.90;;;14.90;99.90;;;;;;5037703;28;20081;-81
2022/08/06 04:34:23;;;;;;;1999.90;999.90;;;15.00;99.90;;;;;;5038995;28;20040;-81
2022/08/06 04:36:49;;;;;;;;;;;15.00;99.90;;;;;;5037281;28;20029;-82
2022/08/06 04:39:16;;;;;;;1999.90;999.90;;;14.90;99.90;;;;;;5037725;28;19942;-81
2022/08/06 04:41:42;;;;;;;1999.90;999.90;;;14.90;99.90;;;;;;5058559;28;20114;-81
2022/08/06 04:44:08;;;;;;;1999.90;999.90;;;14.70;99.90;;;;;;5022931;28;20535;-81
2022/08/06 04:46:34;;;;;;;1999.90;999.90;;;14.70;99.90;;;;;;5038743;28;20044;-82
2022/08/06 04:49:00;;;;;;;1999.90;999.90;;;14.90;99.90;;;;;;5037341;28;20113;-81
2022/08/06 04:51:26;;;;;;;1999.90;999.90;;;14.80;99.90;;;;;;5035448;28;20045;-81
2022/08/06 04:53:51;;;;;;;1999.90;999.90;;;14.90;99.90;;;;;;5036692;28;20033;-81
2022/08/06 04:56:17;;;;;;;1999.90;999.90;;;14.90;99.90;;;;;;5037366;28;20025;-81
2022/08/06 04:58:43;;;;;;;1999.90;999.90;;;14.90;99.90;;;;;;5038638;28;20026;-90
2022/08/06 05:01:09;;;;;;;1999.90;999.90;;;14.80;99.90;;;;;;5019451;28;20515;-82
2022/08/06 05:03:34;;;;;;;1999.90;999.90;;;14.80;99.90;;;;;;5037816;28;20041;-82
2022/08/06 05:06:18;;;;;;;1999.90;999.90;;;14.70;99.90;;;;;;5035335;28;20499;-82
2022/08/06 05:08:46;;;;;;;1999.90;999.90;;;14.70;99.90;;;;;;5033856;28;20036;-83
2022/08/06 05:11:19;;;;;;;1999.90;999.90;;;14.60;99.90;;;;;;5039359;28;20116;-82
2022/08/06 05:13:46;;;;;;;1999.90;999.90;;;14.70;99.90;;;;;;5036607;28;20043;-82
2022/08/06 05:16:14;;;;;;;1999.90;999.90;;;14.50;99.90;;;;;;5036934;28;20396;-86
2022/08/06 05:18:44;;;;;;;1999.90;999.90;;;14.60;99.90;;;;;;5037551;28;20754;-83
2022/08/06 05:21:12;;;;;;;;;;;14.50;99.90;;;;;;5027208;28;20119;-82
2022/08/06 05:23:44;;;;;;;1999.90;999.90;;;14.50;99.90;;;;;;5031902;28;19931;-82
2022/08/06 05:26:10;;;;;;;1999.90;999.90;;;14.40;99.90;;;;;;5030974;28;20128;-83
2022/08/06 05:28:41;;;;;;;1999.90;999.90;;;14.50;99.90;;;;;;5036485;28;20036;-83
2022/08/06 05:31:07;;;;;;;1999.90;999.90;;;14.70;99.90;;;;;;5036421;28;20064;-82
2022/08/06 05:33:38;;;;;;;1999.90;999.90;;;14.80;99.90;;;;;;5037555;28;20044;-82
2022/08/06 05:36:11;;;;;;;1999.90;999.90;;;14.90;99.90;;;;;;5032331;28;20092;-83
2022/08/06 05:38:39;;;;;;;1999.90;999.90;;;14.90;99.90;;;;;;5025308;28;20049;-81
2022/08/06 05:41:10;;;;;;;1999.90;999.90;;;15.10;99.90;;;;;;5018839;28;20117;-82
2022/08/06 05:43:37;;;;;;;1999.90;999.90;;;15.20;99.90;;;;;;5054860;28;20039;-82
2022/08/06 05:46:08;;;;;;;812.25;744.63;;;15.30;99.90;;;;;;5032971;28;20045;-82
2022/08/06 05:48:41;;;;;;;1999.90;999.90;;;15.30;99.90;;;;;;5038866;28;20703;-82
2022/08/06 05:51:18;;;;;;;1999.90;999.90;;;15.30;99.90;;;;;;5039952;28;20109;-83
2022/08/06 05:53:49;;;;;;;1999.90;999.90;;;15.30;99.90;;;;;;5029585;28;20500;-89
2022/08/06 05:56:25;;;;;;;1999.90;999.90;;;15.40;99.90;;;;;;5037479;28;20112;-82
2022/08/06 05:58:59;;;;;;;1999.90;999.90;;;15.30;99.90;;;;;;5042590;28;20025;-83
2022/08/06 06:01:26;;;;;;;1999.90;999.90;;;15.10;99.90;;;;;;5034801;28;20033;-86
2022/08/06 06:03:55;;;;;;;1999.90;999.90;;;15.00;99.90;;;;;;5033124;28;20080;-82
2022/08/06 06:06:23;;;;;;;1999.90;999.90;;;15.00;99.90;;;;;;5029410;28;20120;-82
2022/08/06 06:08:49;;;;;;;1999.90;999.90;;;14.90;99.90;;;;;;5059285;28;20033;-82
2022/08/06 06:11:16;;;;;;;1999.90;999.90;;;14.90;99.90;;;;;;5041538;28;20037;-82
2022/08/06 06:13:43;;;;;;;1999.90;999.90;;;14.90;99.90;;;;;;5031485;28;20026;-83
2022/08/06 06:16:33;;;;;;;1999.90;999.90;;;15.00;99.90;;;;;;5030703;28;20096;-82
2022/08/06 06:19:14;;;;;;;1999.90;999.90;;;15.10;99.90;;;;;;5036204;28;20029;-83
2022/08/06 06:21:59;;;;;;;1999.90;999.90;;;15.00;99.90;;;;;;5030906;28;20029;-81
2022/08/06 06:24:41;;;;;;;1999.90;999.90;;;15.00;99.90;;;;;;5032266;28;20104;-81
2022/08/06 06:27:28;;;;;;;1999.90;999.90;;;15.10;99.90;;;;;;5034962;28;20216;-82
2022/08/06 06:30:04;;;;;;;1999.90;999.90;;;15.10;99.90;;;;;;5029706;28;20260;-81
2022/08/06 06:32:52;;;;;;;1999.90;999.90;;;15.10;99.90;;;;;;5034074;28;20040;-81
2022/08/06 06:35:27;;;;;;;1999.90;999.90;;;14.90;99.90;;;;;;5049416;28;20032;-78
2022/08/06 06:38:09;;;;;;;1999.90;999.90;;;15.00;99.90;;;;;;5034082;28;20090;-79
2022/08/06 06:40:58;;;;;;;1999.90;999.90;;;15.00;99.90;;;;;;5036634;28;20017;-79
2022/08/06 06:43:46;;;;;;;1999.90;999.90;;;15.00;99.90;;;;;;5032691;28;20111;-79
2022/08/06 06:46:17;;;;;;;1999.90;999.90;;;15.10;99.90;;;;;;5034251;28;20476;-77
2022/08/06 06:48:48;;;;;;;1999.90;999.90;;;14.90;99.90;;;;;;5034689;28;20033;-77
2022/08/06 06:51:24;;;;;;;1999.90;999.90;;;14.90;99.90;;;;;;5028389;28;20060;-77
2022/08/06 06:53:51;;;;;;;1999.90;999.90;;;15.00;99.90;;;;;;5032306;28;20053;-78
2022/08/06 06:56:21;;;;;;;1999.90;999.90;;;15.00;99.90;;;;;;5053291;28;20029;-77
2022/08/06 06:58:52;;;;;;;1999.90;999.90;;;15.10;99.90;;;;;;5015296;28;20037;-77
2022/08/06 07:01:19;;;;;;;1999.90;999.90;;;15.30;99.90;;;;;;5033107;28;20057;-76
2022/08/06 07:03:47;;;;;;;1999.90;999.90;;;15.10;99.90;;;;;;5038362;28;20025;-77
2022/08/06 07:06:15;;;;;;;1999.90;999.90;;;15.30;99.90;;;;;;5027894;28;20041;-77
2022/08/06 07:08:45;;;;;;;1999.90;999.90;;;15.30;99.90;;;;;;5031528;28;20033;-77
2022/08/06 07:11:19;;;;;;;1999.90;999.90;;;15.30;99.90;;;;;;5033386;28;20028;-76
2022/08/06 07:13:46;;;;;;;1999.90;999.90;;;15.10;99.90;;;;;;5026617;28;20770;-77
2022/08/06 07:16:15;;;;;;;1999.90;999.90;;;15.20;99.90;;;;;;5030045;28;20047;-79
2022/08/06 07:18:43;;;;;;;1999.90;999.90;;;15.10;99.90;;;;;;5036820;28;20031;-75
2022/08/06 07:21:12;;;;;;;1999.90;999.90;;;15.00;99.90;;;;;;5023730;28;20069;-76
2022/08/06 07:23:38;;;;;;;1999.90;999.90;;;15.20;99.90;;;;;;5029080;28;20029;-77
2022/08/06 07:26:05;;;;;;;1999.90;999.90;;;15.00;99.90;;;;;;5015948;28;20503;-77
2022/08/06 07:28:32;;;;;;;1999.90;999.90;;;15.10;99.90;;;;;;5027361;28;20030;-76
2022/08/06 07:31:00;;;;;;;1999.90;999.90;;;15.00;99.90;;;;;;5027098;28;20033;-76
2022/08/06 07:33:28;;;;;;;1999.90;999.90;;;14.90;99.90;;;;;;5033282;28;20034;-76
2022/08/06 07:35:55;;;;;;;1999.90;999.90;;;14.90;99.90;;;;;;5030086;28;21684;-75
2022/08/06 07:38:26;;;;;;;1999.90;999.90;;;15.00;99.90;;;;;;5025444;28;20029;-76
2022/08/06 07:40:54;;;;;;;1999.90;999.90;;;15.00;99.90;;;;;;5021110;28;20029;-76
2022/08/06 07:43:48;;;;;;;1999.90;999.90;;;15.00;99.90;;;;;;5032084;28;20046;-77
2022/08/06 07:46:19;;;;;;;1999.90;999.90;;;15.10;99.90;;;;;;5042745;28;20030;-75
2022/08/06 07:48:52;;;;;;;1999.90;999.90;;;15.10;99.90;;;;;;5025609;28;20041;-77
2022/08/06 07:51:22;;;;;;;1999.90;999.90;;;15.00;99.90;;;;;;5023631;28;20527;-81
2022/08/06 07:53:49;;;;;;;1999.90;999.90;;;15.20;99.90;;;;;;5027309;28;20029;-76
2022/08/06 07:56:16;;;;;;;1999.90;999.90;;;15.30;99.90;;;;;;5030340;28;20095;-77
2022/08/06 07:58:43;;;;;;;1999.90;999.90;;;15.20;99.90;;;;;;5027853;28;20022;-77
2022/08/06 08:01:10;;;;;;;1999.90;999.90;;;15.20;99.90;;;;;;5028100;28;20029;-76
2022/08/06 08:06:22;;;;;;;1999.90;999.90;;;15.20;99.90;;;;;;5023356;28;20083;-77
2022/08/06 08:09:10;;;;;;;1999.90;999.90;;;15.30;99.90;;;;;;5027208;28;20475;-75
2022/08/06 08:11:40;;;;;;;1999.90;999.90;;;15.30;99.90;;;;;;5037890;28;20035;-75
2022/08/06 08:14:09;;;;;;;1999.90;999.90;;;15.40;99.90;;;;;;5029617;28;20032;-76
2022/08/06 08:16:35;;;;;;;1999.90;999.90;;;15.80;99.90;;;;;;5040298;28;20029;-77
2022/08/06 08:19:01;;;;;;;1999.90;999.90;;;15.90;99.90;;;;;;5037966;28;20021;-77
2022/08/06 08:21:28;;;;;;;1999.90;999.90;;;16.20;99.90;;;;;;5025499;28;20431;-77
2022/08/06 08:23:55;;;;;;;1999.90;999.90;;;16.70;99.90;;;;;;5031789;28;20327;-77
2022/08/06 08:26:21;;;;;;;1999.90;999.90;;;16.80;99.90;;;;;;5032201;28;20491;-77
2022/08/06 08:28:47;;;;;;;1999.90;999.90;;;16.90;99.90;;;;;;5031696;28;20071;-76
2022/08/06 08:31:13;;;;;;;1999.90;999.90;;;17.00;99.90;;;;;;5026062;28;20488;-75
2022/08/06 08:33:40;;;;;;;1565.82;794.45;;;16.70;99.90;;;;;;5029075;28;20096;-76
2022/08/06 08:36:06;;;;;;;1999.90;999.90;;;16.60;99.90;;;;;;5028477;28;20264;-76
2022/08/06 08:38:33;;;;;;;1999.90;999.90;;;16.70;99.90;;;;;;5030330;28;20036;-75
2022/08/06 08:41:03;;;;;;;1999.90;999.90;;;16.60;99.90;;;;;;5034178;28;20021;-73
2022/08/06 08:43:44;;;;;;;1999.90;999.90;;;16.70;99.90;;;;;;5028917;28;20047;-74
2022/08/06 08:46:11;;;;;;;1999.90;999.90;;;16.90;99.90;;;;;;5022333;28;20033;-75
2022/08/06 08:48:37;;;;;;;1311.05;836.30;;;16.50;99.90;;;;;;5023302;28;20033;-74
2022/08/06 08:51:04;;;;;;;1999.90;999.90;;;16.80;99.90;;;;;;5030874;28;20113;-74
2022/08/06 08:53:36;;;;;;;1999.90;999.90;;;16.90;99.90;;;;;;5024112;28;20037;-76
2022/08/06 08:56:03;;;;;;;1999.90;999.90;;;16.90;99.90;;;;;;5030603;28;20065;-75
2022/08/06 08:58:31;;;;;;;1999.90;999.90;;;16.80;99.90;;;;;;5027063;28;20355;-74
2022/08/06 09:00:58;;;;;;;1080.53;673.33;;;16.80;99.90;;;;;;5029033;28;20060;-75
2022/08/06 09:03:24;;;;;;;1999.90;999.90;;;16.80;99.90;;;;;;5024335;28;20032;-77
2022/08/06 09:05:49;;;;;;;1999.90;999.90;;;17.00;99.90;;;;;;5029576;28;20029;-75
2022/08/06 09:08:17;;;;;;;1999.90;999.90;;;17.30;99.90;;;;;;5026397;28;20037;-76
2022/08/06 09:10:43;;;;;;;1165.03;675.88;;;17.00;99.90;;;;;;5028875;28;20208;-76
2022/08/06 09:13:09;;;;;;;1084.53;985.42;;;17.10;99.90;;;;;;5042903;28;20034;-76
2022/08/06 09:15:35;;;;;;;1999.90;999.90;;;17.20;99.90;;;;;;5012355;28;20416;-77
2022/08/06 09:18:01;;;;;;;1999.90;999.90;;;17.20;99.90;;;;;;5027137;28;20054;-77
2022/08/06 09:20:26;;;;;;;1169.18;706.53;;;17.30;99.90;;;;;;5023776;28;20076;-77
2022/08/06 09:22:52;;;;;;;1412.40;797.20;;;17.10;99.90;;;;;;5041578;28;20025;-77
2022/08/06 09:25:39;;;;;;;1999.90;999.90;;;17.10;99.90;;;;;;5034473;28;20030;-75
2022/08/06 09:28:25;;;;;;;1177.55;851.47;;;16.90;99.90;;;;;;5039187;28;20540;-77
2022/08/06 09:31:11;;;;;;;1999.90;999.90;;;17.00;99.90;;;;;;5016892;28;20061;-77
2022/08/06 09:33:39;;;;;;;1999.90;999.90;;;17.40;99.90;;;;;;5029988;28;20044;-77
2022/08/06 09:36:13;;;;;;;1340.82;903.38;;;17.20;99.90;;;;;;5032850;28;20104;-77
2022/08/06 09:38:52;;;;;;;1999.90;999.90;;;17.30;99.90;;;;;;5029129;28;20033;-77
2022/08/06 09:41:21;;;;;;;1999.90;999.90;;;17.50;99.90;;;;;;5003747;28;20525;-82
2022/08/06 09:43:50;;;;;;;1417.90;811.83;;;17.40;99.90;;;;;;4981890;28;20459;-81
2022/08/06 09:46:17;;;;;;;1197.03;999.90;;;17.50;99.90;;;;;;5012723;28;20124;-77
2022/08/06 09:48:59;;;;;;;1591.28;899.78;;;17.80;99.90;;;;;;5020383;28;20033;-79
2022/08/06 09:51:26;;;;;;;1659.20;937.55;;;17.70;99.90;;;;;;5014213;28;20667;-76
2022/08/06 09:53:58;;;;;;;1307.97;999.90;;;17.90;99.90;;;;;;5013102;28;20037;-77
2022/08/06 09:56:28;;;;;;;1723.68;970.38;;;18.10;99.90;;;;;;5002976;28;20044;-76
2022/08/06 09:59:00;;;;;;;1460.38;913.30;;;18.10;99.90;;;;;;5024763;28;20124;-78
2022/08/06 10:01:27;;;;;;;1674.28;997.10;;;18.50;99.90;;;;;;5036961;28;20030;-75
2022/08/06 10:03:56;;;;;;;1097.20;960.13;;;18.20;99.90;;;;;;5028489;28;20034;-75
2022/08/06 10:06:22;;;;;;;1709.32;999.90;;;18.60;99.90;;;;;;5049541;28;20496;-75
2022/08/06 10:08:50;;;;;;;1004.20;911.85;;;18.80;99.90;;;;;;5008113;28;20040;-76
2022/08/06 10:11:39;;;;;;;1159.30;999.90;;;19.20;97.30;;;;;;5010182;28;20121;-75
2022/08/06 10:14:05;;;;;;;1970.65;918.55;;;18.80;98.20;;;;;;5023760;28;20033;-76
2022/08/06 10:16:31;;;;;;;1099.93;984.45;;;19.20;99.90;;;;;;5009332;28;20489;-77
2022/08/06 10:18:58;;;;;;;1184.63;994.92;;;19.20;97.10;;;;;;5041546;28;20084;-77
2022/08/06 10:21:27;;;;;;;1451.53;999.90;;;19.00;98.80;;;;;;5011518;28;20052;-77
2022/08/06 10:23:59;;;;;;;1041.78;950.67;;;19.40;97.00;;;;;;5004230;28;20033;-79
2022/08/06 10:26:32;;;;;;;994.90;917.13;;;20.30;94.90;;;;;;5005447;28;20068;-81
2022/08/06 10:29:04;;;;;;;752.50;702.58;;;19.60;94.60;;;;;;5023800;28;20602;-83
2022/08/06 10:31:31;;;;;;;726.90;680.63;;;20.00;93.50;;;;;;5013880;28;20141;-81
2022/08/06 10:34:08;;;;;;;773.92;719.17;;;19.90;92.60;;;;;;5000155;28;20088;-86
2022/08/06 10:36:42;;;;;;;967.10;885.47;;;20.00;93.60;;;;;;5018885;28;20081;-81
2022/08/06 10:39:07;;;;;;;789.97;727.60;;;20.30;93.10;;;;;;5010199;28;20709;-82
2022/08/06 10:41:35;;;;;;;935.10;859.47;;;20.50;90.20;;;;;;5008887;28;20030;-80
2022/08/06 10:44:02;;;;;;;972.70;890.53;;;20.60;92.40;;;;;;5013401;28;20117;-81
2022/08/06 10:46:28;;;;;;;891.83;830.22;;;20.10;90.40;;;;;;5009386;28;20530;-81
2022/08/06 10:48:54;;;;;;;844.22;775.47;;;20.60;90.90;;;;;;5009550;28;20037;-81
2022/08/06 10:51:21;;;;;;;762.85;712.47;;;21.10;83.30;;;;;;5015220;28;20151;-81
2022/08/06 10:53:47;;;;;;;817.22;753.67;;;21.50;84.60;;;;;;5029180;28;20033;-83
2022/08/06 10:56:16;;;;;;;1504.22;999.90;;;21.30;86.90;;;;;;5009523;28;20046;-82
2022/08/06 10:58:42;;;;;;;777.50;721.83;;;20.80;91.10;;;;;;5013639;28;20075;-82
2022/08/06 11:01:42;;;;;;;986.78;911.65;;;20.90;85.50;;;;;;5026770;28;20033;-82
2022/08/06 11:04:21;;;;;;;645.42;605.38;;;20.70;86.40;;;;;;4997101;28;20049;-82
2022/08/06 11:07:13;;;;;;;801.63;741.42;;;20.70;83.60;;;;;;5044259;28;20017;-82
2022/08/06 11:10:00;;;;;;;670.20;629.20;;;20.70;88.70;;;;;;5040473;28;20112;-83
2022/08/06 11:13:16;;;;;;;711.97;670.78;;;21.10;86.10;;;;;;5037961;28;20029;-82
2022/08/06 11:15:43;;;;;;;576.17;543.30;;;20.90;87.10;;;;;;5002048;28;20534;-83
2022/08/06 11:18:11;;;;;;;865.95;798.42;;;20.40;86.30;;;;;;5037944;28;20055;-84
2022/08/06 11:20:42;;;;;;;927.45;847.60;;;20.40;90.50;;;;;;5042952;28;20138;-82
2022/08/06 11:23:13;;;;;;;766.90;707.25;;;20.30;90.20;;;;;;5040350;28;20025;-82
2022/08/06 11:25:52;;;;;;;881.85;811.10;;;20.30;88.00;;;;;;5045882;28;20518;-82
2022/08/06 11:28:20;;;;;;;1049.05;951.33;;;20.20;91.70;;;;;;5032559;28;20044;-82
2022/08/06 11:30:53;;;;;;;884.50;812.60;;;19.90;90.10;;;;;;5038481;28;20037;-82
2022/08/06 11:33:41;;;;;;;1144.60;995.35;;;19.80;91.00;;;;;;5037638;28;20029;-82
2022/08/06 11:36:14;;;;;;;686.30;641.33;;;19.50;93.70;;;;;;5038511;28;20113;-82
2022/08/06 11:38:46;;;;;;;921.03;843.75;;;19.40;91.30;;;;;;5042426;28;20104;-82
2022/08/06 11:41:42;;;;;;;834.83;774.92;;;19.60;93.20;;;;;;5042841;28;20065;-83
2022/08/06 11:44:09;;;;;;;987.63;901.03;;;19.60;90.10;;;;;;5037309;28;20223;-82
2022/08/06 11:46:40;;;;;;;1010.17;923.72;;;19.50;91.00;;;;;;5044958;28;20025;-82
2022/08/06 11:49:18;;;;;;;652.83;611.63;;;19.70;91.30;;;;;;5020506;28;20041;-83
2022/08/06 11:51:46;;;;;;;686.05;646.08;;;19.80;85.90;;;;;;5045885;28;20112;-83
2022/08/06 11:54:57;;;;;;;754.55;707.92;;;20.20;86.60;;;;;;5032820;28;20065;-82
2022/08/06 11:57:24;;;;;;;728.17;676.67;;;19.90;87.10;;;;;;5035751;28;20029;-82
2022/08/06 11:59:55;;;;;;;691.75;635.50;;;20.00;86.50;;;;;;5041940;28;20102;-82
2022/08/06 12:02:39;;;;;;;859.63;794.88;;;19.60;87.20;;;;;;5036728;28;20037;-82
2022/08/06 12:05:07;;;;;;;784.55;719.28;;;19.50;90.90;;;;;;5045313;28;20049;-82
2022/08/06 12:07:36;;;;;;;927.78;829.58;;;19.70;85.90;;;;;;5031637;28;20048;-82
2022/08/06 12:10:13;;;;;;;976.85;895.13;;;19.60;86.60;;;;;;5035708;28;20025;-82
2022/08/06 12:12:46;;;;;;;890.50;820.92;;;19.40;89.00;;;;;;5029054;28;20125;-82
2022/08/06 12:15:12;;;;;;;1074.43;978.90;;;19.90;87.20;;;;;;5019986;28;20030;-85
2022/08/06 12:17:56;;;;;;;589.63;555.05;;;19.60;90.80;;;;;;5034436;28;20030;-83
2022/08/06 12:20:32;;;;;;;904.53;831.80;;;19.90;86.00;;;;;;5040509;28;20531;-82
2022/08/06 12:22:59;;;;;;;1041.57;953.72;;;20.10;91.20;;;;;;5036056;28;20033;-87